Time,TemperatureF,DewpointF,PressureIn,WindDirection,WindDirectionDegrees,WindSpeedMPH,WindSpeedGustMPH,Humidity,HourlyPrecipIn,Conditions,Clouds,dailyrainin,SoftwareType,DateUTC
2013-09-09 00:04:00,64.1,62.6,29.75,SW,232,0.0,0.0,95,0.00,,,0.00,Wunderground v.1.15,2013-09-09 07:04:00,
2013-09-09 00:09:00,64.3,62.5,29.75,SW,231,0.0,0.0,94,0.00,,,0.00,Wunderground v.1.15,2013-09-09 07:09:00,
2013-09-09 00:14:00,64.6,62.8,29.75,SW,231,0.0,0.0,94,0.00,,,0.00,Wunderground v.1.15,2013-09-09 07:14:00,
2013-09-09 00:19:00,64.7,63.2,29.74,SW,231,0.0,0.0,95,0.00,,,0.00,Wunderground v.1.15,2013-09-09 07:19:00,
2013-09-09 00:25:00,64.7,63.2,29.74,SW,231,0.0,0.0,95,0.00,,,0.00,Wunderground v.1.15,2013-09-09 07:25:00,
2013-09-09 00:30:00,64.6,63.1,29.74,SSE,165,0.0,0.0,95,0.00,,,0.00,Wunderground v.1.15,2013-09-09 07:30:00,
2013-09-09 00:35:00,64.6,62.8,29.75,SSE,165,0.0,0.0,94,0.00,,,0.00,Wunderground v.1.15,2013-09-09 07:35:00,
2013-09-09 00:41:00,64.6,62.5,29.75,SE,131,0.0,0.0,93,0.00,,,0.00,Wunderground v.1.15,2013-09-09 07:41:00,
2013-09-09 00:46:00,64.7,62.6,29.75,NE,44,0.0,2.0,93,0.00,,,0.00,Wunderground v.1.15,2013-09-09 07:46:00,
2013-09-09 00:51:00,64.7,62.6,29.75,ENE,65,1.0,2.0,93,0.00,,,0.00,Wunderground v.1.15,2013-09-09 07:51:00,
2013-09-09 00:56:00,64.5,62.4,29.75,NE,39,1.0,2.0,93,0.00,,,0.00,Wunderground v.1.15,2013-09-09 07:56:00,
2013-09-09 01:02:00,64.3,62.2,29.75,NE,46,0.0,0.0,93,0.00,,,0.00,Wunderground v.1.15,2013-09-09 08:02:00,
2013-09-09 01:07:00,64.3,62.5,29.75,ENE,70,0.0,1.0,94,0.00,,,0.00,Wunderground v.1.15,2013-09-09 08:07:00,
2013-09-09 01:12:00,64.2,62.4,29.75,East,87,0.0,0.0,94,0.00,,,0.00,Wunderground v.1.15,2013-09-09 08:12:00,
2013-09-09 01:18:00,64.1,62.3,29.75,East,95,0.0,1.0,94,0.00,,,0.00,Wunderground v.1.15,2013-09-09 08:18:00,
2013-09-09 01:23:00,64.1,62.3,29.74,East,87,1.0,2.0,94,0.00,,,0.00,Wunderground v.1.15,2013-09-09 08:23:00,
2013-09-09 01:28:00,64.1,62.3,29.74,ENE,72,1.0,2.0,94,0.00,,,0.00,Wunderground v.1.15,2013-09-09 08:28:00,
2013-09-09 01:33:00,64.0,62.2,29.75,East,91,0.0,1.0,94,0.00,,,0.00,Wunderground v.1.15,2013-09-09 08:33:00,
2013-09-09 01:39:00,63.9,62.1,29.75,East,91,0.0,1.0,94,0.00,,,0.00,Wunderground v.1.15,2013-09-09 08:39:00,
2013-09-09 01:45:00,63.9,62.1,29.75,East,91,0.0,0.0,94,0.00,,,0.00,Wunderground v.1.15,2013-09-09 08:45:00,
2013-09-09 01:50:00,63.8,62.0,29.75,East,91,0.0,0.0,94,0.00,,,0.00,Wunderground v.1.15,2013-09-09 08:50:00,
2013-09-09 01:56:00,63.9,62.1,29.75,East,101,0.0,0.0,94,0.00,,,0.00,Wunderground v.1.15,2013-09-09 08:56:00,
2013-09-09 02:01:00,63.9,62.1,29.74,East,96,0.0,0.0,94,0.00,,,0.00,Wunderground v.1.15,2013-09-09 09:01:00,
2013-09-09 02:07:00,63.9,62.1,29.75,East,92,1.0,1.0,94,0.00,,,0.00,Wunderground v.1.15,2013-09-09 09:07:00,
2013-09-09 02:12:00,63.8,62.0,29.74,ESE,115,0.0,1.0,94,0.00,,,0.00,Wunderground v.1.15,2013-09-09 09:12:00,
2013-09-09 02:17:00,63.8,62.0,29.74,ESE,115,0.0,1.0,94,0.00,,,0.00,Wunderground v.1.15,2013-09-09 09:17:00,
2013-09-09 02:22:00,63.9,62.4,29.74,ESE,115,0.0,0.0,95,0.00,,,0.00,Wunderground v.1.15,2013-09-09 09:22:00,
2013-09-09 02:27:00,64.0,62.5,29.74,ESE,115,0.0,0.0,95,0.00,,,0.00,Wunderground v.1.15,2013-09-09 09:27:00,
2013-09-09 02:33:00,63.9,62.4,29.74,ESE,115,0.0,0.0,95,0.00,,,0.00,Wunderground v.1.15,2013-09-09 09:33:00,
2013-09-09 02:38:00,63.9,62.4,29.74,ESE,115,0.0,0.0,95,0.00,,,0.00,Wunderground v.1.15,2013-09-09 09:38:00,
2013-09-09 02:43:00,63.9,62.4,29.73,ESE,115,0.0,0.0,95,0.00,,,0.00,Wunderground v.1.15,2013-09-09 09:43:00,
2013-09-09 02:49:00,63.9,62.4,29.73,ESE,115,0.0,0.0,95,0.00,,,0.01,Wunderground v.1.15,2013-09-09 09:49:00,
2013-09-09 02:54:00,63.9,62.7,29.73,ESE,115,0.0,1.0,96,0.00,,,0.01,Wunderground v.1.15,2013-09-09 09:54:00,
2013-09-09 02:59:00,64.0,62.8,29.73,ESE,115,0.0,1.0,96,0.00,,,0.01,Wunderground v.1.15,2013-09-09 09:59:00,
2013-09-09 03:04:00,64.0,62.8,29.73,ESE,115,0.0,0.0,96,0.00,,,0.01,Wunderground v.1.15,2013-09-09 10:04:00,
2013-09-09 03:09:00,64.0,62.8,29.73,ESE,115,0.0,0.0,96,0.00,,,0.01,Wunderground v.1.15,2013-09-09 10:09:00,
2013-09-09 03:14:00,63.9,62.7,29.73,ESE,115,0.0,1.0,96,0.00,,,0.01,Wunderground v.1.15,2013-09-09 10:14:00,
2013-09-09 03:20:00,63.9,63.0,29.73,ESE,117,0.0,1.0,97,0.00,,,0.01,Wunderground v.1.15,2013-09-09 10:20:00,
2013-09-09 03:25:00,63.8,62.6,29.72,SE,127,0.0,1.0,96,0.00,,,0.01,Wunderground v.1.15,2013-09-09 10:25:00,
2013-09-09 03:31:00,63.8,62.9,29.73,SE,127,0.0,0.0,97,0.00,,,0.01,Wunderground v.1.15,2013-09-09 10:31:00,
2013-09-09 03:37:00,63.7,62.5,29.72,SE,127,0.0,0.0,96,0.00,,,0.01,Wunderground v.1.15,2013-09-09 10:37:00,
2013-09-09 03:42:00,63.7,62.5,29.72,SE,127,0.0,0.0,96,0.00,,,0.01,Wunderground v.1.15,2013-09-09 10:42:00,
2013-09-09 03:47:00,63.7,62.8,29.72,SE,127,0.0,1.0,97,0.00,,,0.01,Wunderground v.1.15,2013-09-09 10:47:00,
2013-09-09 03:53:00,63.7,62.8,29.72,SE,127,0.0,0.0,97,0.00,,,0.01,Wunderground v.1.15,2013-09-09 10:53:00,
2013-09-09 03:58:00,63.6,62.7,29.72,SE,127,0.0,0.0,97,0.00,,,0.01,Wunderground v.1.15,2013-09-09 10:58:00,
2013-09-09 04:03:00,63.5,62.6,29.72,SE,127,0.0,0.0,97,0.00,,,0.01,Wunderground v.1.15,2013-09-09 11:03:00,
2013-09-09 04:08:00,63.3,62.4,29.72,SE,127,0.0,0.0,97,0.00,,,0.01,Wunderground v.1.15,2013-09-09 11:08:00,
2013-09-09 04:14:00,63.3,62.4,29.72,SE,127,0.0,0.0,97,0.00,,,0.01,Wunderground v.1.15,2013-09-09 11:14:00,
2013-09-09 04:19:00,63.2,62.3,29.72,SE,127,0.0,0.0,97,0.00,,,0.01,Wunderground v.1.15,2013-09-09 11:19:00,
2013-09-09 04:24:00,63.3,62.4,29.72,SE,127,0.0,0.0,97,0.00,,,0.01,Wunderground v.1.15,2013-09-09 11:24:00,
2013-09-09 04:30:00,63.3,62.4,29.72,SE,127,0.0,0.0,97,0.00,,,0.02,Wunderground v.1.15,2013-09-09 11:30:00,
2013-09-09 04:35:00,63.3,62.4,29.73,WSW,242,0.0,0.0,97,0.00,,,0.02,Wunderground v.1.15,2013-09-09 11:35:00,
2013-09-09 04:41:00,63.4,62.5,29.73,WSW,242,0.0,0.0,97,0.00,,,0.02,Wunderground v.1.15,2013-09-09 11:41:00,
2013-09-09 04:46:00,63.4,62.2,29.73,WSW,242,0.0,0.0,96,0.00,,,0.02,Wunderground v.1.15,2013-09-09 11:46:00,
2013-09-09 04:51:00,63.3,62.1,29.73,WSW,242,0.0,0.0,96,0.00,,,0.02,Wunderground v.1.15,2013-09-09 11:51:00,
2013-09-09 04:57:00,63.1,61.9,29.73,WSW,242,0.0,0.0,96,0.00,,,0.02,Wunderground v.1.15,2013-09-09 11:57:00,
2013-09-09 05:02:00,63.2,62.3,29.72,WSW,242,0.0,0.0,97,0.00,,,0.02,Wunderground v.1.15,2013-09-09 12:02:00,
2013-09-09 05:07:00,63.2,62.3,29.72,WSW,242,0.0,0.0,97,0.00,,,0.02,Wunderground v.1.15,2013-09-09 12:07:00,
2013-09-09 05:12:00,63.3,62.4,29.73,WSW,242,0.0,0.0,97,0.00,,,0.02,Wunderground v.1.15,2013-09-09 12:12:00,
2013-09-09 05:17:00,63.3,62.4,29.73,WSW,242,0.0,0.0,97,0.00,,,0.02,Wunderground v.1.15,2013-09-09 12:17:00,
2013-09-09 05:23:00,63.2,62.3,29.73,WSW,242,0.0,0.0,97,0.00,,,0.02,Wunderground v.1.15,2013-09-09 12:23:00,
2013-09-09 05:28:00,63.2,62.3,29.73,WSW,242,0.0,0.0,97,0.00,,,0.02,Wunderground v.1.15,2013-09-09 12:28:00,
2013-09-09 05:34:00,63.1,62.2,29.73,WSW,242,0.0,0.0,97,0.00,,,0.02,Wunderground v.1.15,2013-09-09 12:34:00,
2013-09-09 05:39:00,63.0,61.8,29.73,WSW,242,0.0,0.0,96,0.00,,,0.02,Wunderground v.1.15,2013-09-09 12:39:00,
2013-09-09 05:44:00,63.0,62.1,29.73,WSW,242,0.0,0.0,97,0.00,,,0.02,Wunderground v.1.15,2013-09-09 12:44:00,
2013-09-09 05:50:00,63.1,62.2,29.73,WSW,242,0.0,0.0,97,0.00,,,0.02,Wunderground v.1.15,2013-09-09 12:50:00,
2013-09-09 05:56:00,63.1,62.2,29.73,WSW,242,0.0,0.0,97,0.00,,,0.02,Wunderground v.1.15,2013-09-09 12:56:00,
2013-09-09 06:01:00,63.3,62.4,29.73,WSW,242,0.0,0.0,97,0.00,,,0.02,Wunderground v.1.15,2013-09-09 13:01:00,
2013-09-09 06:06:00,63.3,62.4,29.73,WSW,242,0.0,0.0,97,0.00,,,0.02,Wunderground v.1.15,2013-09-09 13:06:00,
2013-09-09 06:12:00,63.4,62.5,29.73,WSW,242,0.0,0.0,97,0.00,,,0.02,Wunderground v.1.15,2013-09-09 13:12:00,
2013-09-09 06:17:00,63.6,63.0,29.74,WSW,242,0.0,0.0,98,0.00,,,0.02,Wunderground v.1.15,2013-09-09 13:17:00,
2013-09-09 06:23:00,63.8,62.9,29.74,WSW,242,0.0,0.0,97,0.00,,,0.02,Wunderground v.1.15,2013-09-09 13:23:00,
2013-09-09 06:28:00,63.9,63.0,29.74,SSW,197,0.0,1.0,97,0.00,,,0.02,Wunderground v.1.15,2013-09-09 13:28:00,
2013-09-09 06:33:00,64.0,63.4,29.74,SSW,210,0.0,0.0,98,0.00,,,0.02,Wunderground v.1.15,2013-09-09 13:33:00,
2013-09-09 06:39:00,64.0,63.4,29.74,SSW,209,0.0,1.0,98,0.00,,,0.02,Wunderground v.1.15,2013-09-09 13:39:00,
2013-09-09 06:44:00,64.1,63.5,29.74,SSW,206,0.0,1.0,98,0.00,,,0.02,Wunderground v.1.15,2013-09-09 13:44:00,
2013-09-09 06:50:00,64.1,63.2,29.74,SW,233,0.0,0.0,97,0.00,,,0.02,Wunderground v.1.15,2013-09-09 13:50:00,
2013-09-09 06:56:00,64.1,63.2,29.75,SW,234,1.0,1.0,97,0.00,,,0.03,Wunderground v.1.15,2013-09-09 13:56:00,
2013-09-09 07:02:00,63.8,62.0,29.75,West,274,1.0,2.0,94,0.19,,,0.05,Wunderground v.1.15,2013-09-09 14:02:00,
2013-09-09 07:07:00,63.7,62.2,29.75,WSW,244,1.0,2.0,95,0.07,,,0.05,Wunderground v.1.15,2013-09-09 14:07:00,
2013-09-09 07:12:00,63.6,62.1,29.75,NW,307,0.0,1.0,95,0.05,,,0.05,Wunderground v.1.15,2013-09-09 14:12:00,
2013-09-09 07:17:00,63.5,62.0,29.75,WNW,294,0.0,1.0,95,0.00,,,0.05,Wunderground v.1.15,2013-09-09 14:17:00,
2013-09-09 07:23:00,63.4,61.9,29.75,WNW,283,0.0,0.0,95,0.00,,,0.05,Wunderground v.1.15,2013-09-09 14:23:00,
2013-09-09 07:28:00,63.5,62.0,29.75,WNW,283,0.0,0.0,95,0.00,,,0.05,Wunderground v.1.15,2013-09-09 14:28:00,
2013-09-09 07:34:00,63.5,62.0,29.75,SW,225,0.0,1.0,95,0.00,,,0.05,Wunderground v.1.15,2013-09-09 14:34:00,
2013-09-09 07:39:00,63.6,62.1,29.75,SW,225,0.0,1.0,95,0.00,,,0.05,Wunderground v.1.15,2013-09-09 14:39:00,
2013-09-09 07:45:00,63.8,62.3,29.75,SW,225,0.0,0.0,95,0.00,,,0.05,Wunderground v.1.15,2013-09-09 14:45:00,
2013-09-09 07:50:00,63.9,62.4,29.75,South,191,0.0,0.0,95,0.00,,,0.05,Wunderground v.1.15,2013-09-09 14:50:00,
2013-09-09 07:55:00,64.1,62.6,29.75,South,191,0.0,0.0,95,0.00,,,0.05,Wunderground v.1.15,2013-09-09 14:55:00,
2013-09-09 08:01:00,64.4,62.9,29.75,SSW,196,0.0,1.0,95,0.00,,,0.05,Wunderground v.1.15,2013-09-09 15:01:00,
2013-09-09 08:06:00,64.6,63.1,29.75,SW,218,0.0,1.0,95,0.00,,,0.05,Wunderground v.1.15,2013-09-09 15:06:00,
2013-09-09 08:12:00,64.7,63.2,29.75,SSW,193,1.0,2.0,95,0.00,,,0.05,Wunderground v.1.15,2013-09-09 15:12:00,
2013-09-09 08:17:00,65.0,63.5,29.75,South,183,1.0,2.0,95,0.00,,,0.05,Wunderground v.1.15,2013-09-09 15:17:00,
2013-09-09 08:23:00,65.4,63.9,29.75,South,187,1.0,3.0,95,0.00,,,0.05,Wunderground v.1.15,2013-09-09 15:23:00,
2013-09-09 08:28:00,65.6,64.1,29.75,SSW,202,1.0,3.0,95,0.00,,,0.05,Wunderground v.1.15,2013-09-09 15:28:00,
2013-09-09 08:33:00,65.8,64.0,29.75,SSW,202,2.0,5.0,94,0.00,,,0.05,Wunderground v.1.15,2013-09-09 15:33:00,
2013-09-09 08:39:00,66.4,64.3,29.75,SSW,194,2.0,5.0,93,0.00,,,0.05,Wunderground v.1.15,2013-09-09 15:39:00,
2013-09-09 08:44:00,66.8,64.1,29.75,SW,214,2.0,5.0,91,0.00,,,0.05,Wunderground v.1.15,2013-09-09 15:44:00,
2013-09-09 08:49:00,66.8,63.8,29.75,SSW,209,2.0,5.0,90,0.00,,,0.05,Wunderground v.1.15,2013-09-09 15:49:00,
2013-09-09 08:55:00,66.9,64.2,29.75,SSW,192,2.0,3.0,91,0.00,,,0.05,Wunderground v.1.15,2013-09-09 15:55:00,
2013-09-09 09:00:00,67.1,64.1,29.75,WSW,241,2.0,4.0,90,0.00,,,0.05,Wunderground v.1.15,2013-09-09 16:00:00,
2013-09-09 09:05:00,67.6,63.9,29.75,SW,216,2.0,4.0,88,0.00,,,0.05,Wunderground v.1.15,2013-09-09 16:05:00,
2013-09-09 09:10:00,67.8,64.1,29.75,SW,231,2.0,2.0,88,0.00,,,0.05,Wunderground v.1.15,2013-09-09 16:10:00,
2013-09-09 09:15:00,68.0,64.0,29.75,SSW,207,3.0,6.0,87,0.00,,,0.05,Wunderground v.1.15,2013-09-09 16:15:00,
2013-09-09 09:21:00,68.4,64.4,29.75,SSW,207,3.0,3.0,87,0.00,,,0.05,Wunderground v.1.15,2013-09-09 16:21:00,
2013-09-09 09:27:00,68.6,63.9,29.74,WNW,287,3.0,5.0,85,0.00,,,0.05,Wunderground v.1.15,2013-09-09 16:27:00,
2013-09-09 09:33:00,68.6,63.9,29.74,WSW,257,5.0,7.0,85,0.00,,,0.05,Wunderground v.1.15,2013-09-09 16:33:00,
2013-09-09 09:38:00,68.7,64.0,29.75,WSW,248,5.0,7.0,85,0.00,,,0.05,Wunderground v.1.15,2013-09-09 16:38:00,
2013-09-09 09:43:00,69.0,64.0,29.75,WNW,283,4.0,5.0,84,0.00,,,0.05,Wunderground v.1.15,2013-09-09 16:43:00,
2013-09-09 09:49:00,70.2,64.4,29.74,NNE,32,5.0,8.0,82,0.00,,,0.05,Wunderground v.1.15,2013-09-09 16:49:00,
2013-09-09 09:55:00,71.3,64.8,29.75,WNW,293,5.0,9.0,80,0.00,,,0.05,Wunderground v.1.15,2013-09-09 16:55:00,
2013-09-09 10:00:00,71.6,64.4,29.74,WSW,246,5.0,5.0,78,0.00,,,0.05,Wunderground v.1.15,2013-09-09 17:00:00,
2013-09-09 10:05:00,72.0,64.0,29.74,West,281,5.0,8.0,76,0.00,,,0.05,Wunderground v.1.15,2013-09-09 17:05:00,
2013-09-09 10:10:00,71.6,64.0,29.74,WSW,252,5.0,5.0,77,0.00,,,0.05,Wunderground v.1.15,2013-09-09 17:10:00,
2013-09-09 10:16:00,71.6,63.6,29.75,SW,235,5.0,5.0,76,0.00,,,0.05,Wunderground v.1.15,2013-09-09 17:16:00,
2013-09-09 10:21:00,71.6,63.6,29.75,NW,308,5.0,8.0,76,0.00,,,0.05,Wunderground v.1.15,2013-09-09 17:21:00,
2013-09-09 10:27:00,71.8,63.4,29.74,WNW,283,6.0,8.0,75,0.00,,,0.05,Wunderground v.1.15,2013-09-09 17:27:00,
2013-09-09 10:32:00,72.3,63.5,29.75,WSW,244,5.0,5.0,74,0.00,,,0.05,Wunderground v.1.15,2013-09-09 17:32:00,
2013-09-09 10:38:00,72.6,63.4,29.74,WSW,248,5.0,8.0,73,0.00,,,0.05,Wunderground v.1.15,2013-09-09 17:38:00,
2013-09-09 10:43:00,72.4,63.3,29.74,West,265,5.0,8.0,73,0.00,,,0.05,Wunderground v.1.15,2013-09-09 17:43:00,
2013-09-09 10:49:00,72.4,63.6,29.74,West,279,5.0,8.0,74,0.00,,,0.05,Wunderground v.1.15,2013-09-09 17:49:00,
2013-09-09 10:54:00,72.5,63.4,29.74,NW,323,5.0,6.0,73,0.00,,,0.05,Wunderground v.1.15,2013-09-09 17:54:00,
2013-09-09 11:00:00,73.6,64.0,29.74,West,281,5.0,5.0,72,0.00,,,0.05,Wunderground v.1.15,2013-09-09 18:00:00,
2013-09-09 11:05:00,73.1,63.1,29.74,West,270,5.0,9.0,71,0.00,,,0.05,Wunderground v.1.15,2013-09-09 18:05:00,
2013-09-09 11:10:00,73.2,64.0,29.73,West,269,5.0,5.0,73,0.00,,,0.05,Wunderground v.1.15,2013-09-09 18:10:00,
2013-09-09 11:16:00,73.2,64.4,29.73,WSW,241,4.0,7.0,74,0.00,,,0.05,Wunderground v.1.15,2013-09-09 18:16:00,
2013-09-09 11:21:00,72.8,64.0,29.73,West,271,4.0,4.0,74,0.00,,,0.05,Wunderground v.1.15,2013-09-09 18:21:00,
2013-09-09 11:26:00,72.9,63.7,29.73,WSW,250,4.0,4.0,73,0.00,,,0.05,Wunderground v.1.15,2013-09-09 18:26:00,
2013-09-09 11:32:00,73.2,64.4,29.73,WNW,285,4.0,5.0,74,0.00,,,0.05,Wunderground v.1.15,2013-09-09 18:32:00,
2013-09-09 11:38:00,73.2,64.0,29.73,WSW,240,5.0,8.0,73,0.00,,,0.05,Wunderground v.1.15,2013-09-09 18:38:00,
2013-09-09 11:44:00,73.0,64.2,29.73,West,271,5.0,7.0,74,0.00,,,0.05,Wunderground v.1.15,2013-09-09 18:44:00,
2013-09-09 11:50:00,73.0,63.8,29.72,WNW,295,5.0,8.0,73,0.00,,,0.05,Wunderground v.1.15,2013-09-09 18:50:00,
2013-09-09 11:55:00,73.9,64.3,29.72,West,266,5.0,8.0,72,0.00,,,0.05,Wunderground v.1.15,2013-09-09 18:55:00,
2013-09-09 12:01:00,74.1,64.1,29.72,SW,234,4.0,5.0,71,0.00,,,0.05,Wunderground v.1.15,2013-09-09 19:01:00,
2013-09-09 12:06:00,73.9,63.9,29.72,WNW,292,4.0,7.0,71,0.00,,,0.05,Wunderground v.1.15,2013-09-09 19:06:00,
2013-09-09 12:11:00,73.9,63.9,29.71,West,263,4.0,6.0,71,0.00,,,0.05,Wunderground v.1.15,2013-09-09 19:11:00,
2013-09-09 12:16:00,73.3,63.7,29.71,WSW,248,5.0,11.0,72,0.00,,,0.05,Wunderground v.1.15,2013-09-09 19:16:00,
2013-09-09 12:22:00,74.5,64.5,29.71,WSW,255,5.0,9.0,71,0.00,,,0.05,Wunderground v.1.15,2013-09-09 19:22:00,
2013-09-09 12:27:00,74.3,64.7,29.71,WNW,290,5.0,9.0,72,0.00,,,0.05,Wunderground v.1.15,2013-09-09 19:27:00,
2013-09-09 12:32:00,73.3,64.5,29.71,West,269,5.0,6.0,74,0.00,,,0.05,Wunderground v.1.15,2013-09-09 19:32:00,
2013-09-09 12:38:00,73.5,64.3,29.71,WNW,285,5.0,6.0,73,0.00,,,0.05,Wunderground v.1.15,2013-09-09 19:38:00,
2013-09-09 12:43:00,73.1,65.1,29.70,NW,320,5.0,7.0,76,0.00,,,0.05,Wunderground v.1.15,2013-09-09 19:43:00,
2013-09-09 12:49:00,71.8,64.2,29.70,WSW,250,5.0,7.0,77,0.00,,,0.05,Wunderground v.1.15,2013-09-09 19:49:00,
2013-09-09 12:55:00,71.4,64.2,29.70,WSW,248,4.0,7.0,78,0.00,,,0.05,Wunderground v.1.15,2013-09-09 19:55:00,
2013-09-09 13:00:00,71.3,63.7,29.70,WSW,246,4.0,4.0,77,0.00,,,0.05,Wunderground v.1.15,2013-09-09 20:00:00,
2013-09-09 13:05:00,71.8,64.2,29.70,West,270,3.0,5.0,77,0.00,,,0.05,Wunderground v.1.15,2013-09-09 20:05:00,
2013-09-09 13:11:00,71.4,64.5,29.69,WNW,295,4.0,7.0,79,0.00,,,0.05,Wunderground v.1.15,2013-09-09 20:11:00,
2013-09-09 13:16:00,72.1,65.2,29.69,West,278,4.0,7.0,79,0.00,,,0.05,Wunderground v.1.15,2013-09-09 20:16:00,
2013-09-09 13:22:00,73.3,64.5,29.69,WSW,241,4.0,4.0,74,0.00,,,0.05,Wunderground v.1.15,2013-09-09 20:22:00,
2013-09-09 13:27:00,73.5,63.1,29.69,WSW,257,5.0,6.0,70,0.00,,,0.05,Wunderground v.1.15,2013-09-09 20:27:00,
2013-09-09 13:32:00,72.7,62.8,29.69,WNW,298,6.0,6.0,71,0.00,,,0.05,Wunderground v.1.15,2013-09-09 20:32:00,
2013-09-09 13:37:00,72.0,62.5,29.68,West,262,6.0,7.0,72,0.00,,,0.05,Wunderground v.1.15,2013-09-09 20:37:00,
2013-09-09 13:42:00,71.9,62.4,29.68,NNW,331,5.0,6.0,72,0.00,,,0.05,Wunderground v.1.15,2013-09-09 20:42:00,
2013-09-09 13:47:00,72.2,63.1,29.68,West,262,4.0,7.0,73,0.00,,,0.05,Wunderground v.1.15,2013-09-09 20:47:00,
2013-09-09 13:53:00,72.2,63.1,29.68,West,277,5.0,8.0,73,0.00,,,0.05,Wunderground v.1.15,2013-09-09 20:53:00,
2013-09-09 13:58:00,71.7,63.7,29.68,West,276,5.0,8.0,76,0.00,,,0.05,Wunderground v.1.15,2013-09-09 20:58:00,
2013-09-09 14:04:00,71.2,63.2,29.68,SSW,212,4.0,7.0,76,0.00,,,0.05,Wunderground v.1.15,2013-09-09 21:04:00,
2013-09-09 14:09:00,70.8,63.6,29.69,SW,231,4.0,7.0,78,0.00,,,0.05,Wunderground v.1.15,2013-09-09 21:09:00,
2013-09-09 14:14:00,70.4,64.3,29.69,WSW,251,4.0,6.0,81,0.00,,,0.05,Wunderground v.1.15,2013-09-09 21:14:00,
2013-09-09 14:20:00,70.0,64.9,29.68,West,269,5.0,5.0,84,0.00,,,0.06,Wunderground v.1.15,2013-09-09 21:20:00,
2013-09-09 14:25:00,69.7,65.3,29.69,WSW,238,5.0,6.0,86,0.00,,,0.06,Wunderground v.1.15,2013-09-09 21:25:00,
2013-09-09 14:30:00,69.6,65.2,29.69,WSW,246,4.0,4.0,86,0.00,,,0.06,Wunderground v.1.15,2013-09-09 21:30:00,
2013-09-09 14:36:00,69.4,65.4,29.68,WSW,250,3.0,4.0,87,0.00,,,0.06,Wunderground v.1.15,2013-09-09 21:36:00,
2013-09-09 14:41:00,69.5,64.8,29.68,WSW,244,3.0,3.0,85,0.00,,,0.06,Wunderground v.1.15,2013-09-09 21:41:00,
2013-09-09 14:46:00,70.0,65.3,29.68,WSW,254,2.0,3.0,85,0.00,,,0.06,Wunderground v.1.15,2013-09-09 21:46:00,
2013-09-09 14:52:00,70.5,65.4,29.68,West,261,1.0,1.0,84,0.00,,,0.06,Wunderground v.1.15,2013-09-09 21:52:00,
2013-09-09 14:57:00,71.1,65.0,29.67,WSW,251,1.0,2.0,81,0.00,,,0.06,Wunderground v.1.15,2013-09-09 21:57:00,
2013-09-09 15:02:00,71.5,64.3,29.68,WSW,244,1.0,3.0,78,0.00,,,0.06,Wunderground v.1.15,2013-09-09 22:02:00,
2013-09-09 15:07:00,71.6,65.1,29.68,WNW,292,1.0,3.0,80,0.00,,,0.06,Wunderground v.1.15,2013-09-09 22:07:00,
2013-09-09 15:12:00,71.2,64.7,29.68,WSW,244,2.0,3.0,80,0.00,,,0.06,Wunderground v.1.15,2013-09-09 22:12:00,
2013-09-09 15:17:00,70.7,64.9,29.68,West,278,2.0,3.0,82,0.00,,,0.06,Wunderground v.1.15,2013-09-09 22:17:00,
2013-09-09 15:23:00,70.3,64.5,29.68,NW,309,2.0,3.0,82,0.00,,,0.06,Wunderground v.1.15,2013-09-09 22:23:00,
2013-09-09 15:28:00,70.0,64.2,29.69,West,281,3.0,4.0,82,0.00,,,0.06,Wunderground v.1.15,2013-09-09 22:28:00,
2013-09-09 15:33:00,69.9,64.5,29.68,WNW,292,3.0,3.0,83,0.00,,,0.07,Wunderground v.1.15,2013-09-09 22:33:00,
2013-09-09 15:38:00,69.7,64.6,29.68,WNW,284,2.0,3.0,84,0.00,,,0.07,Wunderground v.1.15,2013-09-09 22:38:00,
2013-09-09 15:43:00,69.5,64.8,29.69,West,270,2.0,2.0,85,0.05,,,0.08,Wunderground v.1.15,2013-09-09 22:43:00,
2013-09-09 15:49:00,69.3,63.6,29.69,ESE,115,1.0,3.0,82,0.05,,,0.08,Wunderground v.1.15,2013-09-09 22:49:00,
2013-09-09 15:54:00,69.1,63.4,29.69,SSE,157,1.0,2.0,82,0.05,,,0.08,Wunderground v.1.15,2013-09-09 22:54:00,
2013-09-09 15:59:00,68.8,62.7,29.68,ESE,121,1.0,3.0,81,0.00,,,0.08,Wunderground v.1.15,2013-09-09 22:59:00,
2013-09-09 16:04:00,68.6,62.9,29.69,SSE,150,1.0,1.0,82,0.00,,,0.08,Wunderground v.1.15,2013-09-09 23:04:00,
2013-09-09 16:10:00,68.6,63.6,29.69,SE,126,1.0,1.0,84,0.00,,,0.08,Wunderground v.1.15,2013-09-09 23:10:00,
2013-09-09 16:15:00,68.5,63.1,29.68,SE,132,1.0,3.0,83,0.00,,,0.08,Wunderground v.1.15,2013-09-09 23:15:00,
2013-09-09 16:21:00,68.6,63.6,29.68,South,184,1.0,1.0,84,0.00,,,0.08,Wunderground v.1.15,2013-09-09 23:21:00,
2013-09-09 16:26:00,69.1,64.1,29.68,SSW,210,1.0,1.0,84,0.00,,,0.08,Wunderground v.1.15,2013-09-09 23:26:00,
2013-09-09 16:31:00,70.0,64.9,29.68,WSW,252,0.0,1.0,84,0.00,,,0.08,Wunderground v.1.15,2013-09-09 23:31:00,
2013-09-09 16:36:00,69.9,64.8,29.68,NW,326,1.0,3.0,84,0.00,,,0.08,Wunderground v.1.15,2013-09-09 23:36:00,
2013-09-09 16:41:00,69.8,64.7,29.68,SW,235,2.0,3.0,84,0.00,,,0.08,Wunderground v.1.15,2013-09-09 23:41:00,
2013-09-09 16:46:00,69.9,64.8,29.68,SW,231,1.0,3.0,84,0.00,,,0.08,Wunderground v.1.15,2013-09-09 23:46:00,
2013-09-09 16:52:00,70.1,64.7,29.68,SW,233,0.0,1.0,83,0.00,,,0.08,Wunderground v.1.15,2013-09-09 23:52:00,
2013-09-09 16:58:00,70.1,65.0,29.68,West,281,0.0,1.0,84,0.00,,,0.08,Wunderground v.1.15,2013-09-09 23:58:00,
2013-09-09 17:03:00,70.1,64.3,29.68,WSW,247,0.0,2.0,82,0.00,,,0.08,Wunderground v.1.15,2013-09-10 00:03:00,
2013-09-09 17:09:00,70.3,64.2,29.68,WSW,247,0.0,2.0,81,0.00,,,0.08,Wunderground v.1.15,2013-09-10 00:09:00,
2013-09-09 17:14:00,70.5,64.7,29.68,WSW,247,0.0,0.0,82,0.00,,,0.08,Wunderground v.1.15,2013-09-10 00:14:00,
2013-09-09 17:20:00,70.5,64.4,29.68,SSE,153,0.0,1.0,81,0.00,,,0.08,Wunderground v.1.15,2013-09-10 00:20:00,
2013-09-09 17:25:00,70.1,64.3,29.68,East,96,0.0,1.0,82,0.00,,,0.08,Wunderground v.1.15,2013-09-10 00:25:00,
2013-09-09 17:31:00,69.9,64.2,29.69,ESE,122,0.0,1.0,82,0.00,,,0.08,Wunderground v.1.15,2013-09-10 00:31:00,
2013-09-09 17:36:00,69.8,64.4,29.69,East,90,1.0,4.0,83,0.00,,,0.08,Wunderground v.1.15,2013-09-10 00:36:00,
2013-09-09 17:41:00,69.3,63.9,29.69,East,101,3.0,4.0,83,0.00,,,0.08,Wunderground v.1.15,2013-09-10 00:41:00,
2013-09-09 17:46:00,68.8,63.1,29.69,East,97,4.0,4.0,82,0.00,,,0.08,Wunderground v.1.15,2013-09-10 00:46:00,
2013-09-09 17:52:00,68.3,62.6,29.69,East,89,3.0,4.0,82,0.00,,,0.08,Wunderground v.1.15,2013-09-10 00:52:00,
2013-09-09 17:57:00,68.1,62.4,29.69,ESE,102,2.0,4.0,82,0.00,,,0.08,Wunderground v.1.15,2013-09-10 00:57:00,
2013-09-09 18:03:00,67.8,62.1,29.69,ESE,102,1.0,2.0,82,0.00,,,0.08,Wunderground v.1.15,2013-09-10 01:03:00,
2013-09-09 18:08:00,67.7,62.3,29.70,East,94,0.0,2.0,83,0.00,,,0.08,Wunderground v.1.15,2013-09-10 01:08:00,
2013-09-09 18:13:00,67.6,62.6,29.70,East,90,1.0,2.0,84,0.00,,,0.08,Wunderground v.1.15,2013-09-10 01:13:00,
2013-09-09 18:19:00,67.5,62.5,29.70,ESE,104,1.0,2.0,84,0.00,,,0.08,Wunderground v.1.15,2013-09-10 01:19:00,
2013-09-09 18:24:00,67.4,62.4,29.71,East,79,1.0,3.0,84,0.00,,,0.08,Wunderground v.1.15,2013-09-10 01:24:00,
2013-09-09 18:29:00,67.3,62.3,29.71,ENE,75,1.0,3.0,84,0.00,,,0.08,Wunderground v.1.15,2013-09-10 01:29:00,
2013-09-09 18:34:00,67.3,62.0,29.71,East,94,1.0,3.0,83,0.00,,,0.08,Wunderground v.1.15,2013-09-10 01:34:00,
2013-09-09 18:39:00,67.4,62.1,29.71,East,98,2.0,3.0,83,0.00,,,0.08,Wunderground v.1.15,2013-09-10 01:39:00,
2013-09-09 18:44:00,67.4,62.4,29.70,ESE,112,1.0,2.0,84,0.00,,,0.08,Wunderground v.1.15,2013-09-10 01:44:00,
2013-09-09 18:50:00,67.2,62.2,29.71,ESE,110,1.0,2.0,84,0.00,,,0.08,Wunderground v.1.15,2013-09-10 01:50:00,
2013-09-09 18:55:00,67.2,62.5,29.72,ESE,105,1.0,3.0,85,0.00,,,0.08,Wunderground v.1.15,2013-09-10 01:55:00,
2013-09-09 19:00:00,67.3,63.0,29.73,ENE,65,2.0,4.0,86,0.00,,,0.08,Wunderground v.1.15,2013-09-10 02:00:00,
2013-09-09 19:06:00,66.6,62.6,29.73,ESE,106,4.0,6.0,87,0.00,,,0.08,Wunderground v.1.15,2013-09-10 02:06:00,
2013-09-09 19:11:00,66.2,62.5,29.72,ENE,74,6.0,6.0,88,0.00,,,0.08,Wunderground v.1.15,2013-09-10 02:11:00,
2013-09-09 19:17:00,65.9,62.6,29.72,East,97,3.0,6.0,89,0.00,,,0.08,Wunderground v.1.15,2013-09-10 02:17:00,
2013-09-09 19:23:00,65.8,62.8,29.72,NE,51,2.0,2.0,90,0.00,,,0.08,Wunderground v.1.15,2013-09-10 02:23:00,
2013-09-09 19:28:00,65.6,62.6,29.72,NNE,15,2.0,3.0,90,0.00,,,0.09,Wunderground v.1.15,2013-09-10 02:28:00,
2013-09-09 19:33:00,65.4,62.7,29.72,ENE,59,2.0,2.0,91,0.00,,,0.09,Wunderground v.1.15,2013-09-10 02:33:00,
2013-09-09 19:39:00,65.2,62.8,29.72,NE,35,1.0,2.0,92,0.00,,,0.09,Wunderground v.1.15,2013-09-10 02:39:00,
2013-09-09 19:45:00,65.1,62.4,29.72,NW,326,1.0,4.0,91,0.00,,,0.09,Wunderground v.1.15,2013-09-10 02:45:00,
2013-09-09 19:50:00,65.0,61.4,29.72,North,359,3.0,7.0,88,0.00,,,0.09,Wunderground v.1.15,2013-09-10 02:50:00,
2013-09-09 19:56:00,64.8,61.5,29.73,North,350,3.0,7.0,89,0.00,,,0.10,Wunderground v.1.15,2013-09-10 02:56:00,
2013-09-09 20:01:00,64.6,61.3,29.73,WNW,287,3.0,3.0,89,0.07,,,0.11,Wunderground v.1.15,2013-09-10 03:01:00,
2013-09-09 20:06:00,64.3,61.0,29.73,NE,41,2.0,3.0,89,0.07,,,0.11,Wunderground v.1.15,2013-09-10 03:06:00,
2013-09-09 20:11:00,64.1,61.1,29.73,North,357,2.0,2.0,90,0.05,,,0.11,Wunderground v.1.15,2013-09-10 03:11:00,
2013-09-09 20:17:00,63.9,60.9,29.73,North,349,2.0,5.0,90,0.05,,,0.12,Wunderground v.1.15,2013-09-10 03:17:00,
2013-09-09 20:23:00,63.9,61.2,29.73,NNW,330,3.0,4.0,91,0.05,,,0.12,Wunderground v.1.15,2013-09-10 03:23:00,
2013-09-09 20:28:00,63.8,60.8,29.73,NNW,342,2.0,4.0,90,0.04,,,0.12,Wunderground v.1.15,2013-09-10 03:28:00,
2013-09-09 20:34:00,63.9,60.9,29.73,North,357,2.0,4.0,90,0.04,,,0.13,Wunderground v.1.15,2013-09-10 03:34:00,
2013-09-09 20:39:00,63.9,61.2,29.73,NW,314,2.0,4.0,91,0.04,,,0.13,Wunderground v.1.15,2013-09-10 03:39:00,
2013-09-09 20:44:00,63.9,61.2,29.73,NW,304,1.0,2.0,91,0.04,,,0.13,Wunderground v.1.15,2013-09-10 03:44:00,
2013-09-09 20:50:00,64.0,61.6,29.74,NE,45,1.0,1.0,92,0.00,,,0.13,Wunderground v.1.15,2013-09-10 03:50:00,
2013-09-09 20:56:00,63.9,61.5,29.73,NE,44,0.0,1.0,92,0.00,,,0.14,Wunderground v.1.15,2013-09-10 03:56:00,
2013-09-09 21:02:00,63.9,61.5,29.73,NE,45,0.0,0.0,92,0.00,,,0.14,Wunderground v.1.15,2013-09-10 04:02:00,
2013-09-09 21:03:00,64.0,61.6,29.73,NE,45,0.0,0.0,92,0.00,,,0.14,Wunderground v.1.15,2013-09-10 04:03:00,
2013-09-09 21:05:00,64.0,61.3,29.73,ENE,57,0.0,1.0,91,0.00,,,0.14,Wunderground v.1.15,2013-09-10 04:05:00,
2013-09-09 21:09:00,64.0,61.6,29.73,ENE,57,0.0,1.0,92,0.00,,,0.14,Wunderground v.1.15,2013-09-10 04:09:00,
2013-09-09 21:10:00,64.0,61.6,29.73,ENE,57,0.0,0.0,92,0.00,,,0.14,Wunderground v.1.15,2013-09-10 04:10:00,
2013-09-09 21:12:00,64.0,61.6,29.73,ENE,57,0.0,0.0,92,0.00,,,0.14,Wunderground v.1.15,2013-09-10 04:12:00,
2013-09-09 21:17:00,64.0,61.6,29.73,ENE,57,0.0,0.0,92,0.00,,,0.14,Wunderground v.1.15,2013-09-10 04:17:00,
2013-09-09 21:23:00,64.0,61.6,29.73,ENE,57,0.0,0.0,92,0.00,,,0.14,Wunderground v.1.15,2013-09-10 04:23:00,
2013-09-09 21:29:00,64.0,61.6,29.73,ENE,57,0.0,0.0,92,0.00,,,0.14,Wunderground v.1.15,2013-09-10 04:29:00,
2013-09-09 21:34:00,64.0,61.6,29.73,ENE,57,0.0,0.0,92,0.00,,,0.14,Wunderground v.1.15,2013-09-10 04:34:00,
2013-09-09 21:40:00,64.0,61.6,29.73,ENE,57,0.0,0.0,92,0.00,,,0.14,Wunderground v.1.15,2013-09-10 04:40:00,
2013-09-09 21:45:00,64.2,61.8,29.73,ENE,57,0.0,0.0,92,0.00,,,0.14,Wunderground v.1.15,2013-09-10 04:45:00,
2013-09-09 21:51:00,64.3,61.9,29.73,ENE,57,0.0,0.0,92,0.00,,,0.14,Wunderground v.1.15,2013-09-10 04:51:00,
2013-09-09 21:56:00,64.3,61.9,29.73,SW,231,0.0,0.0,92,0.00,,,0.14,Wunderground v.1.15,2013-09-10 04:56:00,
2013-09-09 22:01:00,64.3,61.9,29.73,WSW,243,0.0,0.0,92,0.00,,,0.14,Wunderground v.1.15,2013-09-10 05:01:00,
2013-09-09 22:06:00,64.3,61.6,29.73,West,265,1.0,1.0,91,0.00,,,0.14,Wunderground v.1.15,2013-09-10 05:06:00,
2013-09-09 22:11:00,64.3,60.7,29.74,West,259,1.0,1.0,88,0.00,,,0.14,Wunderground v.1.15,2013-09-10 05:11:00,
2013-09-09 22:16:00,64.9,60.6,29.74,WSW,257,1.0,1.0,86,0.00,,,0.14,Wunderground v.1.15,2013-09-10 05:16:00,
2013-09-09 22:21:00,64.9,61.3,29.75,WSW,250,1.0,1.0,88,0.00,,,0.14,Wunderground v.1.15,2013-09-10 05:21:00,
2013-09-09 22:26:00,64.6,61.3,29.75,SSW,198,0.0,1.0,89,0.00,,,0.14,Wunderground v.1.15,2013-09-10 05:26:00,
2013-09-09 22:32:00,64.7,61.4,29.75,ESE,108,1.0,2.0,89,0.00,,,0.14,Wunderground v.1.15,2013-09-10 05:32:00,
2013-09-09 22:37:00,64.6,61.9,29.75,SE,127,1.0,2.0,91,0.00,,,0.14,Wunderground v.1.15,2013-09-10 05:37:00,
2013-09-09 22:42:00,64.5,61.8,29.75,South,188,0.0,2.0,91,0.00,,,0.14,Wunderground v.1.15,2013-09-10 05:42:00,
2013-09-09 22:48:00,64.7,61.7,29.75,South,191,1.0,3.0,90,0.00,,,0.14,Wunderground v.1.15,2013-09-10 05:48:00,
2013-09-09 22:53:00,64.7,62.0,29.75,South,191,1.0,1.0,91,0.00,,,0.14,Wunderground v.1.15,2013-09-10 05:53:00,
2013-09-09 22:58:00,64.5,62.1,29.75,ESE,114,0.0,2.0,92,0.00,,,0.14,Wunderground v.1.15,2013-09-10 05:58:00,
2013-09-09 23:04:00,64.6,62.2,29.75,ESE,120,1.0,2.0,92,0.00,,,0.14,Wunderground v.1.15,2013-09-10 06:04:00,
2013-09-09 23:10:00,64.6,62.2,29.75,ESE,116,1.0,3.0,92,0.00,,,0.14,Wunderground v.1.15,2013-09-10 06:10:00,
2013-09-09 23:15:00,64.5,62.1,29.75,ESE,115,1.0,3.0,92,0.00,,,0.14,Wunderground v.1.15,2013-09-10 06:15:00,
2013-09-09 23:21:00,64.4,62.3,29.76,SSE,158,2.0,2.0,93,0.00,,,0.14,Wunderground v.1.15,2013-09-10 06:21:00,
2013-09-09 23:26:00,64.3,62.2,29.76,SSE,147,1.0,2.0,93,0.00,,,0.14,Wunderground v.1.15,2013-09-10 06:26:00,
2013-09-09 23:31:00,64.3,62.2,29.76,SSE,155,2.0,2.0,93,0.00,,,0.14,Wunderground v.1.15,2013-09-10 06:31:00,
2013-09-09 23:36:00,64.2,62.1,29.76,ESE,122,1.0,2.0,93,0.00,,,0.14,Wunderground v.1.15,2013-09-10 06:36:00,
2013-09-09 23:41:00,64.1,62.3,29.76,SSE,154,0.0,1.0,94,0.00,,,0.14,Wunderground v.1.15,2013-09-10 06:41:00,
2013-09-09 23:46:00,64.1,62.3,29.76,SW,218,0.0,1.0,94,0.00,,,0.14,Wunderground v.1.15,2013-09-10 06:46:00,
2013-09-09 23:52:00,64.1,62.6,29.76,South,191,1.0,2.0,95,0.00,,,0.14,Wunderground v.1.15,2013-09-10 06:52:00,
2013-09-09 23:58:00,64.1,62.6,29.76,South,189,1.0,2.0,95,0.00,,,0.14,Wunderground v.1.15,2013-09-10 06:58:00,